Time;durP1;ratioP1;P1;durP2;ratioP2;P2;SDS_P1;SDS_P2;PMS_P1;PMS_P2;Temp;Humidity;BMP_temperature;BMP_pressure;BME280_temperature;BME280_humidity;BME280_pressure;Samples;Min_cycle;Max_cycle;Signal;HPM_P1;HPM_P2
2023/04/24 00:02:10;;;;;;;4.72;4.28;;;;;;;;;;4996745;28;20423;-68
2023/04/24 00:04:40;;;;;;;5.25;4.10;;;;;;;;;;4996645;28;20049;-68
2023/04/24 00:07:08;;;;;;;4.05;3.45;;;;;;;;;;5012906;28;20050;-68
2023/04/24 00:09:36;;;;;;;3.63;3.33;;;;;;;;;;5012622;28;20121;-68
2023/04/24 00:12:05;;;;;;;5.15;3.83;;;;;;;;;;5014040;28;20164;-68
2023/04/24 00:14:31;;;;;;;3.60;3.30;;;;;;;;;;5011432;28;20049;-68
2023/04/24 00:16:57;;;;;;;2.90;2.70;;;;;;;;;;4996314;28;20049;-68
2023/04/24 00:19:26;;;;;;;3.13;2.83;;;;;;;;;;5012369;28;20135;-68
2023/04/24 00:21:54;;;;;;;4.15;2.90;;;;;;;;;;5012567;28;20181;-68
2023/04/24 00:24:22;;;;;;;4.78;3.05;;;;;;;;;;5012421;28;20073;-68
2023/04/24 00:26:51;;;;;;;4.20;2.95;;;;;;;;;;5012498;28;20052;-68
2023/04/24 00:29:19;;;;;;;3.38;3.08;;;;;;;;;;5012226;28;20164;-68
2023/04/24 00:31:45;;;;;;;3.65;3.17;;;;;;;;;;5012469;28;20088;-68
2023/04/24 00:34:12;;;;;;;3.67;3.38;;;;;;;;;;5012159;28;20049;-67
2023/04/24 00:36:38;;;;;;;3.88;3.10;;;;;;;;;;5012329;28;20084;-68
2023/04/24 00:39:08;;;;;;;4.30;2.90;;;;;;;;;;5012303;28;20050;-68
2023/04/24 00:41:36;;;;;;;4.53;3.58;;;;;;;;;;4996011;28;20053;-68
2023/04/24 00:44:05;;;;;;;5.00;3.63;;;;;;;;;;5012135;28;20038;-68
2023/04/24 00:46:33;;;;;;;4.60;3.60;;;;;;;;;;5012194;28;20053;-68
2023/04/24 00:49:01;;;;;;;4.05;3.42;;;;;;;;;;5011941;28;20511;-68
2023/04/24 00:51:30;;;;;;;6.10;4.13;;;;;;;;;;4995797;28;20046;-68
2023/04/24 00:53:59;;;;;;;4.07;3.67;;;;;;;;;;5013082;28;20052;-69
2023/04/24 00:56:25;;;;;;;4.07;3.63;;;;;;;;;;5013653;28;20084;-69
2023/04/24 00:58:51;;;;;;;5.47;3.92;;;;;;;;;;5011838;28;20041;-68
2023/04/24 01:01:20;;;;;;;4.22;3.60;;;;;;;;;;5011980;28;20737;-67
2023/04/24 01:03:49;;;;;;;5.10;3.30;;;;;;;;;;5012926;28;20053;-68
2023/04/24 01:06:18;;;;;;;3.58;3.10;;;;;;;;;;5011823;28;20654;-68
2023/04/24 01:08:47;;;;;;;4.00;3.55;;;;;;;;;;5011732;28;20193;-68
2023/04/24 01:11:13;;;;;;;3.08;2.78;;;;;;;;;;5012028;28;20462;-68
2023/04/24 01:13:42;;;;;;;3.17;2.88;;;;;;;;;;5012839;28;20071;-68
2023/04/24 01:16:10;;;;;;;2.88;2.58;;;;;;;;;;5011901;28;20149;-68
2023/04/24 01:18:38;;;;;;;2.50;2.25;;;;;;;;;;4995260;28;20081;-68
2023/04/24 01:21:07;;;;;;;4.20;2.63;;;;;;;;;;5011635;28;20046;-68
2023/04/24 01:23:35;;;;;;;2.80;2.60;;;;;;;;;;5012509;28;20124;-68
2023/04/24 01:26:04;;;;;;;2.47;2.28;;;;;;;;;;5011529;28;20054;-68
2023/04/24 01:28:32;;;;;;;3.97;2.75;;;;;;;;;;5011473;28;20407;-68
2023/04/24 01:30:59;;;;;;;2.83;2.50;;;;;;;;;;5012737;28;20455;-68
2023/04/24 01:33:25;;;;;;;3.78;2.28;;;;;;;;;;5011161;28;20053;-68
2023/04/24 01:35:51;;;;;;;6.93;2.47;;;;;;;;;;5049154;23;20051;-67
2023/04/24 01:38:19;;;;;;;5.25;2.67;;;;;;;;;;5030693;28;20041;-67
2023/04/24 01:40:48;;;;;;;2.42;2.22;;;;;;;;;;5014624;28;20124;-66
2023/04/24 01:43:16;;;;;;;2.60;2.40;;;;;;;;;;5030868;28;20181;-66
2023/04/24 01:45:44;;;;;;;3.85;2.80;;;;;;;;;;5030801;28;20033;-67
2023/04/24 01:48:13;;;;;;;2.58;2.38;;;;;;;;;;5030691;28;20037;-67
2023/04/24 01:50:42;;;;;;;4.40;2.70;;;;;;;;;;5014302;28;20179;-66
2023/04/24 01:53:11;;;;;;;2.55;2.35;;;;;;;;;;5031147;28;20380;-67
2023/04/24 01:55:39;;;;;;;3.00;2.70;;;;;;;;;;5031150;28;20414;-66
2023/04/24 01:58:07;;;;;;;2.72;2.53;;;;;;;;;;5031952;28;20167;-67
2023/04/24 02:00:33;;;;;;;3.10;2.63;;;;;;;;;;5030904;28;20199;-66
2023/04/24 02:03:01;;;;;;;2.78;2.58;;;;;;;;;;5030490;28;20088;-67
2023/04/24 02:05:27;;;;;;;3.50;2.83;;;;;;;;;;5030321;28;20120;-67
2023/04/24 02:07:55;;;;;;;3.10;2.80;;;;;;;;;;5030369;28;20099;-66
2023/04/24 02:10:25;;;;;;;3.65;3.13;;;;;;;;;;5030459;28;20171;-67
2023/04/24 02:12:51;;;;;;;5.15;3.83;;;;;;;;;;5030469;28;20046;-66
2023/04/24 02:15:17;;;;;;;4.05;3.40;;;;;;;;;;5030401;28;20187;-66
2023/04/24 02:17:43;;;;;;;7.25;4.10;;;;;;;;;;5030406;28;20392;-66
2023/04/24 02:20:12;;;;;;;4.90;4.40;;;;;;;;;;5030685;28;20041;-66
2023/04/24 02:22:40;;;;;;;5.03;4.53;;;;;;;;;;5030349;28;20091;-66
2023/04/24 02:25:07;;;;;;;5.22;4.70;;;;;;;;;;5030498;28;20039;-66
2023/04/24 02:27:36;;;;;;;5.80;4.55;;;;;;;;;;5030124;28;20494;-66
2023/04/24 02:30:02;;;;;;;5.70;5.00;;;;;;;;;;5030240;28;20180;-66
2023/04/24 02:32:28;;;;;;;5.85;4.95;;;;;;;;;;5030222;28;20045;-67
2023/04/24 02:34:57;;;;;;;6.40;5.20;;;;;;;;;;5031303;28;20043;-66
2023/04/24 02:37:25;;;;;;;6.18;5.57;;;;;;;;;;5031177;28;20045;-66
2023/04/24 02:39:53;;;;;;;6.25;5.65;;;;;;;;;;5034251;28;20038;-66
2023/04/24 02:42:19;;;;;;;6.10;5.45;;;;;;;;;;5017986;28;20466;-66
2023/04/24 02:44:45;;;;;;;6.85;5.78;;;;;;;;;;5017498;28;20041;-66
2023/04/24 02:47:14;;;;;;;7.05;5.80;;;;;;;;;;5034233;28;20406;-66
2023/04/24 02:49:40;;;;;;;8.20;6.65;;;;;;;;;;5034133;28;20096;-67
2023/04/24 02:52:06;;;;;;;6.43;5.82;;;;;;;;;;5034105;28;20518;-66
2023/04/24 02:54:32;;;;;;;7.57;6.80;;;;;;;;;;5017433;28;20518;-66
2023/04/24 02:56:58;;;;;;;6.18;5.57;;;;;;;;;;5035411;28;20099;-66
2023/04/24 02:59:28;;;;;;;7.78;6.65;;;;;;;;;;5033610;28;20633;-67
2023/04/24 03:01:56;;;;;;;6.50;5.90;;;;;;;;;;5017883;28;20052;-67
2023/04/24 03:04:25;;;;;;;7.82;7.03;;;;;;;;;;5033645;28;20515;-66
2023/04/24 03:06:54;;;;;;;9.07;7.10;;;;;;;;;;5033888;28;20534;-66
2023/04/24 03:09:20;;;;;;;8.07;7.25;;;;;;;;;;5033590;28;20045;-67
2023/04/24 03:11:49;;;;;;;9.52;8.38;;;;;;;;;;5033674;28;20044;-66
2023/04/24 03:14:17;;;;;;;8.55;7.60;;;;;;;;;;5017298;28;20493;-66
2023/04/24 03:16:43;;;;;;;9.07;7.68;;;;;;;;;;5033687;28;20049;-67
2023/04/24 03:19:09;;;;;;;8.73;7.82;;;;;;;;;;5033325;28;20442;-66
2023/04/24 03:21:40;;;;;;;8.45;7.55;;;;;;;;;;5033830;28;20088;-66
2023/04/24 03:24:06;;;;;;;9.60;8.60;;;;;;;;;;5033299;28;20052;-66
2023/04/24 03:26:35;;;;;;;9.57;8.57;;;;;;;;;;5033366;28;20033;-66
2023/04/24 03:29:01;;;;;;;10.25;8.50;;;;;;;;;;5034467;28;20406;-66
2023/04/24 03:31:29;;;;;;;8.30;7.50;;;;;;;;;;5033392;28;20073;-66
2023/04/24 03:33:55;;;;;;;10.25;8.57;;;;;;;;;;5033225;28;20085;-67
2023/04/24 03:36:21;;;;;;;9.35;7.78;;;;;;;;;;5033747;28;20084;-66
2023/04/24 03:38:49;;;;;;;7.78;6.47;;;;;;;;;;5033213;28;20045;-67
2023/04/24 03:41:15;;;;;;;8.00;6.80;;;;;;;;;;5033202;28;20041;-66
2023/04/24 03:43:41;;;;;;;8.20;6.10;;;;;;;;;;5033062;28;20049;-67
2023/04/24 03:46:09;;;;;;;8.60;5.88;;;;;;;;;;5033053;28;20545;-66
2023/04/24 03:48:37;;;;;;;7.30;5.30;;;;;;;;;;5032723;28;20045;-66
2023/04/24 03:51:03;;;;;;;6.10;4.30;;;;;;;;;;5033376;28;20076;-66
2023/04/24 03:53:30;;;;;;;5.10;3.75;;;;;;;;;;5033078;28;20151;-66
2023/04/24 03:55:58;;;;;;;5.93;4.10;;;;;;;;;;5034358;28;20116;-66
2023/04/24 03:58:24;;;;;;;3.72;2.65;;;;;;;;;;5032928;28;20049;-66
2023/04/24 04:00:50;;;;;;;3.85;3.28;;;;;;;;;;5032897;28;20102;-66
2023/04/24 04:03:16;;;;;;;2.67;1.95;;;;;;;;;;5016055;28;20084;-66
2023/04/24 04:05:43;;;;;;;2.58;1.83;;;;;;;;;;5032684;28;20515;-66
2023/04/24 04:08:09;;;;;;;5.93;3.63;;;;;;;;;;5015889;28;20043;-66
2023/04/24 04:10:34;;;;;;;3.25;2.35;;;;;;;;;;5032874;28;20041;-65
2023/04/24 04:13:00;;;;;;;7.05;4.57;;;;;;;;;;5016073;28;20079;-66
2023/04/24 04:15:26;;;;;;;3.83;2.53;;;;;;;;;;5032728;28;20034;-66
2023/04/24 04:17:52;;;;;;;4.90;3.30;;;;;;;;;;5032288;28;20041;-66
2023/04/24 04:20:18;;;;;;;6.93;4.13;;;;;;;;;;5032458;28;20041;-66
2023/04/24 04:22:44;;;;;;;4.70;3.42;;;;;;;;;;5032304;28;20037;-66
2023/04/24 04:25:11;;;;;;;4.75;3.80;;;;;;;;;;5032165;28;20518;-66
2023/04/24 04:27:38;;;;;;;4.82;3.85;;;;;;;;;;5032355;28;20038;-66
2023/04/24 04:30:04;;;;;;;4.05;2.33;;;;;;;;;;5032525;28;20433;-66
2023/04/24 04:32:34;;;;;;;5.60;4.10;;;;;;;;;;5032314;28;20044;-66
2023/04/24 04:35:04;;;;;;;4.72;3.45;;;;;;;;;;5032410;28;20053;-66
2023/04/24 04:37:33;;;;;;;5.90;3.08;;;;;;;;;;5032287;28;20049;-66
2023/04/24 04:40:06;;;;;;;6.65;3.95;;;;;;;;;;5032137;28;20038;-66
2023/04/24 04:42:32;;;;;;;4.63;3.83;;;;;;;;;;5033683;28;20052;-66
2023/04/24 04:44:58;;;;;;;5.25;2.88;;;;;;;;;;5033090;28;20660;-66
2023/04/24 04:47:24;;;;;;;4.15;3.30;;;;;;;;;;5032364;28;20482;-66
2023/04/24 04:49:51;;;;;;;4.72;3.33;;;;;;;;;;5031753;28;20048;-66
2023/04/24 04:52:18;;;;;;;6.32;4.10;;;;;;;;;;5032055;28;20052;-66
2023/04/24 04:54:44;;;;;;;4.35;3.70;;;;;;;;;;5032065;28;20076;-66
2023/04/24 04:57:11;;;;;;;6.47;3.90;;;;;;;;;;5031982;28;20038;-66
2023/04/24 04:59:38;;;;;;;4.50;3.90;;;;;;;;;;5031847;28;20060;-66
2023/04/24 05:02:03;;;;;;;7.72;4.80;;;;;;;;;;5031532;28;20049;-65
2023/04/24 05:04:30;;;;;;;8.32;5.78;;;;;;;;;;5031561;28;20042;-66
2023/04/24 05:06:56;;;;;;;7.53;5.70;;;;;;;;;;5031875;28;20047;-66
2023/04/24 05:09:22;;;;;;;12.20;6.63;;;;;;;;;;5015483;28;20044;-65
2023/04/24 05:11:48;;;;;;;6.32;5.28;;;;;;;;;;5031586;28;20503;-66
2023/04/24 05:14:14;;;;;;;7.82;4.60;;;;;;;;;;5015173;28;20124;-68
2023/04/24 05:16:40;;;;;;;9.02;6.30;;;;;;;;;;5014934;28;20127;-66
2023/04/24 05:19:06;;;;;;;8.40;5.38;;;;;;;;;;5031201;28;20530;-66
2023/04/24 05:21:32;;;;;;;10.57;6.25;;;;;;;;;;5032826;28;20116;-66
2023/04/24 05:23:58;;;;;;;6.85;5.10;;;;;;;;;;5031075;28;20129;-65
2023/04/24 05:26:24;;;;;;;6.85;5.13;;;;;;;;;;5031233;28;20051;-66
2023/04/24 05:28:51;;;;;;;6.90;5.53;;;;;;;;;;5031170;28;20041;-65
2023/04/24 05:31:17;;;;;;;6.50;5.30;;;;;;;;;;5031288;28;20391;-65
2023/04/24 05:33:43;;;;;;;8.13;5.13;;;;;;;;;;5031171;28;20525;-66
2023/04/24 05:36:10;;;;;;;8.30;5.20;;;;;;;;;;5031119;28;20045;-66
2023/04/24 05:38:35;;;;;;;9.82;6.10;;;;;;;;;;5030747;28;20049;-66
2023/04/24 05:41:02;;;;;;;10.27;8.30;;;;;;;;;;5030918;28;20042;-66
2023/04/24 05:43:28;;;;;;;10.68;7.80;;;;;;;;;;5014202;28;20049;-66
2023/04/24 05:45:54;;;;;;;12.00;6.70;;;;;;;;;;5014180;28;20041;-66
2023/04/24 05:48:21;;;;;;;10.70;7.00;;;;;;;;;;5030515;28;20042;-66
2023/04/24 05:50:47;;;;;;;10.13;6.05;;;;;;;;;;5030920;28;20044;-67
2023/04/24 05:53:13;;;;;;;9.02;5.75;;;;;;;;;;5014193;28;20045;-66
2023/04/24 05:55:39;;;;;;;7.57;5.97;;;;;;;;;;5030696;28;20037;-67
2023/04/24 05:58:06;;;;;;;6.35;4.80;;;;;;;;;;5030349;28;20120;-67
2023/04/24 06:00:32;;;;;;;7.97;4.68;;;;;;;;;;5014231;28;20419;-66
2023/04/24 06:02:58;;;;;;;6.90;4.88;;;;;;;;;;5014340;28;20041;-66
2023/04/24 06:05:25;;;;;;;11.30;5.30;;;;;;;;;;5030340;28;20415;-66
2023/04/24 06:07:51;;;;;;;9.23;4.93;;;;;;;;;;5030352;28;20120;-66
2023/04/24 06:10:17;;;;;;;6.43;3.80;;;;;;;;;;5030797;28;20049;-66
2023/04/24 06:12:43;;;;;;;5.65;3.10;;;;;;;;;;5028571;28;20077;-66
2023/04/24 06:15:09;;;;;;;7.25;4.07;;;;;;;;;;5005981;28;20073;-66
2023/04/24 06:17:35;;;;;;;7.75;4.63;;;;;;;;;;5015442;28;20053;-65
2023/04/24 06:20:03;;;;;;;5.55;3.63;;;;;;;;;;5021485;28;20049;-66
2023/04/24 06:22:29;;;;;;;6.47;3.42;;;;;;;;;;5016133;28;20053;-69
2023/04/24 06:24:55;;;;;;;4.50;2.97;;;;;;;;;;5023159;28;20045;-66
2023/04/24 06:27:21;;;;;;;4.57;2.65;;;;;;;;;;5006670;28;20573;-68
2023/04/24 06:29:54;;;;;;;7.25;2.80;;;;;;;;;;5006319;28;20129;-68
2023/04/24 06:32:20;;;;;;;4.10;2.27;;;;;;;;;;4990221;28;20038;-68
2023/04/24 06:34:46;;;;;;;4.10;2.00;;;;;;;;;;5006650;28;20049;-68
2023/04/24 06:37:12;;;;;;;5.07;2.92;;;;;;;;;;5006312;28;20499;-68
2023/04/24 06:39:38;;;;;;;5.32;2.58;;;;;;;;;;5006708;28;20049;-68
2023/04/24 06:42:04;;;;;;;5.97;2.67;;;;;;;;;;5006606;28;20481;-69
2023/04/24 06:44:30;;;;;;;3.78;3.05;;;;;;;;;;5006466;28;20081;-69
2023/04/24 06:46:56;;;;;;;6.47;3.53;;;;;;;;;;5007130;28;20534;-68
2023/04/24 06:49:22;;;;;;;7.28;3.03;;;;;;;;;;4990196;28;20103;-68
2023/04/24 06:51:48;;;;;;;5.30;3.10;;;;;;;;;;5006653;28;20053;-68
2023/04/24 06:54:14;;;;;;;4.38;3.17;;;;;;;;;;5006588;28;20319;-68
2023/04/24 06:56:40;;;;;;;7.80;4.30;;;;;;;;;;5006400;28;20481;-68
2023/04/24 06:59:05;;;;;;;4.82;3.78;;;;;;;;;;5005802;28;20128;-68
2023/04/24 07:01:31;;;;;;;6.82;3.47;;;;;;;;;;5007079;28;20096;-67
2023/04/24 07:03:57;;;;;;;9.23;3.67;;;;;;;;;;5005514;28;20065;-66
2023/04/24 07:06:24;;;;;;;5.63;4.07;;;;;;;;;;4993011;28;20046;-66
2023/04/24 07:08:50;;;;;;;8.70;5.03;;;;;;;;;;5004375;28;20423;-66
2023/04/24 07:11:16;;;;;;;8.82;5.68;;;;;;;;;;5004486;28;20053;-66
2023/04/24 07:13:42;;;;;;;13.93;6.20;;;;;;;;;;5008653;28;20053;-65
2023/04/24 07:16:08;;;;;;;13.90;6.68;;;;;;;;;;4989089;28;20042;-65
2023/04/24 07:18:34;;;;;;;19.48;9.60;;;;;;;;;;5009909;28;20045;-66
2023/04/24 07:21:00;;;;;;;19.95;9.80;;;;;;;;;;5014819;28;20049;-66
2023/04/24 07:23:27;;;;;;;17.73;9.00;;;;;;;;;;5004014;28;20084;-66
2023/04/24 07:25:53;;;;;;;19.08;9.32;;;10.40;99.90;;;;;;5027743;28;20037;-65
2023/04/24 07:28:19;;;;;;;22.45;11.15;;;;;;;;;;5019382;28;20044;-66
2023/04/24 07:30:45;;;;;;;23.60;11.50;;;;;;;;;;5023476;28;20034;-67
2023/04/24 07:33:13;;;;;;;21.35;11.55;;;;;;;;;;5014860;28;20096;-66
2023/04/24 07:35:39;;;;;;;23.80;12.68;;;;;;;;;;5017412;28;20053;-64
2023/04/24 07:38:04;;;;;;;24.25;12.95;;;10.40;99.90;;;;;;5006781;28;20165;-66
2023/04/24 07:40:30;;;;;;;20.65;12.07;;;;;;;;;;5004173;28;20065;-66
2023/04/24 07:42:56;;;;;;;21.52;11.85;;;;;;;;;;4998448;28;20041;-64
2023/04/24 07:45:23;;;;;;;19.45;11.27;;;;;;;;;;5010390;28;20052;-66
2023/04/24 07:47:50;;;;;;;20.63;11.60;;;10.50;99.90;;;;;;5017366;28;20042;-66
2023/04/24 07:50:16;;;;;;;20.20;10.75;;;;;;;;;;5023357;28;20042;-65
2023/04/24 07:52:42;;;;;;;23.80;11.98;;;;;;;;;;5021032;28;20037;-68
2023/04/24 07:55:08;;;;;;;21.27;11.60;;;;;;;;;;5023426;28;20099;-66
2023/04/24 07:57:34;;;;;;;17.83;12.15;;;;;;;;;;5031201;28;20045;-65
2023/04/24 08:00:00;;;;;;;21.40;14.30;;;;;;;;;;5029334;28;20042;-66
2023/04/24 08:02:26;;;;;;;20.40;12.68;;;;;;;;;;5030938;28;20080;-68
2023/04/24 08:04:56;;;;;;;24.50;14.18;;;;;;;;;;5029930;28;20045;-69
2023/04/24 08:07:23;;;;;;;20.60;12.68;;;10.30;99.90;;;;;;5031805;28;20041;-66
2023/04/24 08:09:49;;;;;;;21.02;13.27;;;;;;;;;;4997027;28;20042;-67
2023/04/24 08:12:15;;;;;;;16.60;11.80;;;;;;;;;;5012409;28;20042;-66
2023/04/24 08:14:41;;;;;;;18.63;11.80;;;;;;;;;;5012291;28;20557;-67
2023/04/24 08:17:06;;;;;;;19.67;12.57;;;10.30;99.90;;;;;;5012453;28;20041;-67
2023/04/24 08:19:32;;;;;;;22.42;10.70;;;;;;;;;;5012658;28;20553;-66
2023/04/24 08:21:58;;;;;;;16.80;10.60;;;10.50;99.90;;;;;;5023659;28;20046;-67
2023/04/24 08:24:23;;;;;;;18.92;10.05;;;10.70;99.90;;;;;;5031805;28;20049;-67
2023/04/24 08:26:51;;;;;;;16.42;9.32;;;;;;;;;;5031833;28;20037;-67
2023/04/24 08:29:16;;;;;;;17.42;8.48;;;10.60;99.90;;;;;;5032340;28;20041;-67
2023/04/24 08:31:42;;;;;;;24.58;10.27;;;;;;;;;;5032190;28;20041;-66
2023/04/24 08:34:09;;;;;;;13.15;6.78;;;10.60;99.90;;;;;;5027547;28;20111;-66
2023/04/24 08:36:35;;;;;;;12.20;7.57;;;;;;;;;;5004664;28;20090;-68
2023/04/24 08:39:01;;;;;;;17.73;9.00;;;10.60;99.90;;;;;;5020546;28;20517;-66
2023/04/24 08:41:27;;;;;;;15.77;7.90;;;10.60;99.90;;;;;;5025727;28;20034;-67
2023/04/24 08:43:54;;;;;;;12.10;7.82;;;10.70;99.90;;;;;;5028885;28;20044;-66
2023/04/24 08:46:21;;;;;;;18.27;7.88;;;;;;;;;;5031966;28;20044;-67
2023/04/24 08:48:47;;;;;;;13.38;7.28;;;;;;;;;;5031918;28;20140;-67
2023/04/24 08:51:13;;;;;;;13.20;7.68;;;;;;;;;;5031923;28;20514;-66
2023/04/24 08:53:39;;;;;;;12.00;7.35;;;10.60;99.90;;;;;;5042113;28;20037;-67
2023/04/24 08:56:06;;;;;;;12.27;7.05;;;10.50;99.90;;;;;;5014908;28;20384;-66
2023/04/24 08:58:32;;;;;;;15.18;6.47;;;10.50;99.90;;;;;;5014900;28;20095;-67
2023/04/24 09:00:58;;;;;;;14.15;6.53;;;10.40;99.90;;;;;;5031621;28;20046;-66
2023/04/24 09:03:27;;;;;;;15.60;6.82;;;10.40;99.90;;;;;;5032532;28;20059;-67
2023/04/24 09:05:54;;;;;;;15.02;7.07;;;;;;;;;;5047895;28;20095;-67
2023/04/24 09:08:23;;;;;;;12.02;5.05;;;10.40;99.90;;;;;;5014713;28;20044;-69
2023/04/24 09:10:49;;;;;;;16.20;6.63;;;10.50;99.90;;;;;;5031392;28;20044;-68
2023/04/24 09:13:15;;;;;;;14.52;5.00;;;10.40;99.90;;;;;;5028019;28;20419;-67
2023/04/24 09:15:42;;;;;;;13.55;5.30;;;10.60;99.90;;;;;;5031049;28;20045;-67
2023/04/24 09:18:07;;;;;;;12.95;5.00;;;10.60;99.90;;;;;;5029397;28;20060;-67
2023/04/24 09:20:35;;;;;;;11.45;4.55;;;;;;;;;;5030676;28;20403;-67
2023/04/24 09:23:01;;;;;;;9.25;3.60;;;10.70;99.90;;;;;;5032382;28;20554;-67
2023/04/24 09:25:35;;;;;;;12.52;4.00;;;10.80;99.90;;;;;;5030720;28;20185;-67
2023/04/24 09:28:06;;;;;;;12.93;4.72;;;10.80;99.90;;;;;;5030811;28;20076;-67
2023/04/24 09:30:32;;;;;;;7.53;3.85;;;10.80;99.90;;;;;;5048641;28;20456;-67
2023/04/24 09:33:15;;;;;;;8.02;4.43;;;11.20;99.90;;;;;;5050846;28;20037;-67
2023/04/24 09:35:51;;;;;;;;;;;11.20;99.90;;;;;;5018247;28;20067;-67
2023/04/24 09:38:17;;;;;;;8.23;4.53;;;;;;;;;;5032153;28;19924;-67
2023/04/24 09:40:43;;;;;;;13.82;4.07;;;;;;;;;;5031285;28;20427;-67
2023/04/24 09:43:11;;;;;;;8.52;3.25;;;11.40;99.90;;;;;;5030758;28;20399;-68
2023/04/24 09:45:38;;;;;;;16.88;5.00;;;11.40;99.90;;;;;;5030596;28;20042;-67
2023/04/24 09:48:06;;;;;;;10.45;3.60;;;11.20;99.90;;;;;;5030427;28;20041;-67
2023/04/24 09:50:34;;;;;;;11.70;4.78;;;11.30;99.90;;;;;;5030920;28;20064;-67
2023/04/24 09:53:03;;;;;;;11.63;4.13;;;11.30;99.90;;;;;;5030645;28;20088;-68
2023/04/24 09:55:29;;;;;;;11.38;3.72;;;11.40;99.90;;;;;;5030326;28;20045;-67
2023/04/24 09:57:57;;;;;;;12.32;3.47;;;11.50;99.90;;;;;;5022284;28;20038;-68
2023/04/24 10:00:31;;;;;;;10.15;2.97;;;11.50;99.90;;;;;;5030031;28;20045;-67
2023/04/24 10:03:05;;;;;;;8.30;2.70;;;11.30;99.90;;;;;;5030215;28;20045;-67
2023/04/24 10:05:36;;;;;;;12.82;3.10;;;11.20;99.90;;;;;;5030395;28;20572;-68
2023/04/24 10:08:06;;;;;;;12.02;3.53;;;11.30;99.90;;;;;;5030145;28;20499;-68
2023/04/24 10:10:38;;;;;;;5.55;2.95;;;11.30;99.90;;;;;;5030031;28;20037;-67
2023/04/24 10:13:04;;;;;;;13.15;3.75;;;11.10;99.90;;;;;;5030617;28;20120;-68
2023/04/24 10:15:31;;;;;;;8.10;2.58;;;11.20;99.90;;;;;;5030051;28;20128;-67
2023/04/24 10:17:58;;;;;;;7.53;2.88;;;11.30;99.90;;;;;;5030148;28;20042;-67
2023/04/24 10:20:30;;;;;;;7.78;2.70;;;11.20;99.90;;;;;;5030274;28;20065;-69
2023/04/24 10:22:56;;;;;;;2.85;1.70;;;;;;;;;;5013616;28;20037;-67
2023/04/24 10:25:25;;;;;;;6.25;2.22;;;11.10;99.90;;;;;;5029131;28;20045;-67
2023/04/24 10:27:52;;;;;;;9.75;2.40;;;11.00;99.90;;;;;;5029920;28;20418;-67
2023/04/24 10:30:19;;;;;;;12.35;4.30;;;11.10;99.90;;;;;;5028253;28;20090;-66
2023/04/24 10:32:45;;;;;;;10.63;3.03;;;;;;;;;;5002934;28;20095;-67
2023/04/24 10:35:13;;;;;;;11.32;2.35;;;;;;;;;;5024090;28;20145;-66
2023/04/24 10:38:03;;;;;;;8.32;2.05;;;11.20;99.90;;;;;;5018398;28;20052;-66
2023/04/24 10:40:34;;;;;;;6.13;2.08;;;11.30;99.90;;;;;;5015744;28;20419;-67
2023/04/24 10:43:02;;;;;;;11.95;2.30;;;11.00;99.90;;;;;;5010117;28;20476;-66
2023/04/24 10:45:28;;;;;;;8.68;2.75;;;11.10;99.90;;;;;;5015580;28;20057;-67
2023/04/24 10:48:05;;;;;;;7.00;2.42;;;11.40;99.90;;;;;;5026106;28;20041;-67
2023/04/24 10:50:46;;;;;;;6.15;2.08;;;11.80;99.90;;;;;;5001711;28;20409;-67
2023/04/24 10:53:14;;;;;;;9.00;1.95;;;;;;;;;;4989801;28;20033;-67
2023/04/24 10:55:44;;;;;;;6.82;1.73;;;11.60;99.90;;;;;;5016237;28;20052;-67
2023/04/24 10:58:11;;;;;;;5.72;1.77;;;;;;;;;;5026175;28;20181;-67
2023/04/24 11:00:39;;;;;;;6.25;2.17;;;11.80;99.90;;;;;;5021787;28;20418;-67
2023/04/24 11:03:28;;;;;;;7.68;2.45;;;11.80;99.90;;;;;;5010005;28;20108;-66
2023/04/24 11:06:04;;;;;;;9.32;2.15;;;11.80;99.90;;;;;;5014880;28;20038;-67
2023/04/24 11:08:30;;;;;;;9.05;1.90;;;;;;;;;;5012104;28;20122;-65
2023/04/24 11:11:08;;;;;;;6.85;1.88;;;11.60;99.90;;;;;;5008673;28;20136;-67
2023/04/24 11:13:55;;;;;;;8.35;2.38;;;11.30;99.90;;;;;;5008394;28;20463;-67
2023/04/24 11:16:33;;;;;;;10.32;2.05;;;11.30;99.90;;;;;;5013284;28;20060;-67
2023/04/24 11:19:04;;;;;;;7.13;1.75;;;10.80;99.90;;;;;;5006988;28;20072;-69
2023/04/24 11:21:41;;;;;;;8.48;1.52;;;;;;;;;;5031712;28;20041;-67
2023/04/24 11:24:32;;;;;;;8.13;2.45;;;10.20;99.90;;;;;;5033120;28;20418;-66
2023/04/24 11:27:03;;;;;;;8.15;2.03;;;10.30;99.90;;;;;;5033216;28;20503;-67
2023/04/24 11:29:39;;;;;;;8.60;2.10;;;11.30;99.90;;;;;;5041862;28;20528;-67
2023/04/24 11:32:27;;;;;;;12.10;2.28;;;10.00;99.90;;;;;;5038794;28;20033;-67
2023/04/24 11:35:07;;;;;;;10.55;3.00;;;10.30;99.90;;;;;;5023464;28;20742;-67
2023/04/24 11:37:36;;;;;;;6.90;2.50;;;10.20;99.90;;;;;;5033387;28;20410;-67
2023/04/24 11:40:04;;;;;;;5.97;2.38;;;10.20;99.90;;;;;;5027099;28;20136;-67
2023/04/24 11:42:40;;;;;;;11.15;3.17;;;;;;;;;;5019209;28;20455;-66
2023/04/24 11:45:14;;;;;;;9.00;2.40;;;10.50;99.90;;;;;;4999359;28;20530;-66
2023/04/24 11:47:41;;;;;;;5.43;2.60;;;10.70;99.90;;;;;;5022611;28;20045;-66
2023/04/24 11:50:12;;;;;;;8.85;2.38;;;10.70;99.90;;;;;;5023400;28;20073;-67
2023/04/24 11:52:39;;;;;;;8.73;1.98;;;10.70;99.90;;;;;;5022615;28;20030;-67
2023/04/24 11:55:27;;;;;;;11.57;2.67;;;10.60;99.90;;;;;;5013450;28;20045;-67
2023/04/24 11:57:57;;;;;;;6.60;1.60;;;11.00;99.90;;;;;;4996165;28;20092;-67
2023/04/24 12:00:25;;;;;;;3.30;1.58;;;10.90;99.90;;;;;;5013088;28;20054;-67
2023/04/24 12:02:51;;;;;;;6.57;1.40;;;10.90;99.90;;;;;;5001683;28;20088;-67
2023/04/24 12:05:21;;;;;;;5.72;1.17;;;10.90;99.90;;;;;;5022471;28;20042;-67
2023/04/24 12:07:46;;;;;;;7.28;1.75;;;10.90;99.90;;;;;;5021087;28;20038;-68
2023/04/24 12:10:12;;;;;;;7.78;2.05;;;10.70;99.90;;;;;;5015703;28;20040;-67
2023/04/24 12:12:38;;;;;;;8.40;1.52;;;;;;;;;;5012854;28;20438;-67
2023/04/24 12:15:08;;;;;;;8.38;1.63;;;10.90;99.90;;;;;;5013979;28;20049;-68
2023/04/24 12:17:36;;;;;;;7.18;1.38;;;;;;;;;;5012540;28;20103;-66
2023/04/24 12:20:04;;;;;;;6.22;1.40;;;10.90;99.90;;;;;;5022513;28;20546;-68
2023/04/24 12:22:46;;;;;;;5.80;1.88;;;;;;;;;;5020550;28;20529;-68
2023/04/24 12:25:12;;;;;;;8.25;1.60;;;11.10;99.90;;;;;;5020615;28;20052;-68
2023/04/24 12:27:38;;;;;;;2.75;0.90;;;;;;;;;;5032381;28;20120;-68
2023/04/24 12:30:05;;;;;;;4.28;1.27;;;11.30;99.90;;;;;;5045659;28;20082;-69
2023/04/24 12:32:32;;;;;;;1.42;0.85;;;;;;;;;;5035443;28;20033;-69
2023/04/24 12:34:58;;;;;;;5.20;1.52;;;;;;;;;;5044633;28;20082;-69
2023/04/24 12:37:32;;;;;;;6.22;0.95;;;11.10;99.90;;;;;;5032125;28;20419;-69
2023/04/24 12:40:09;;;;;;;7.28;1.02;;;11.00;99.90;;;;;;5031930;28;20038;-69
2023/04/24 12:42:42;;;;;;;5.80;1.15;;;11.20;99.90;;;;;;5031969;28;20507;-69
2023/04/24 12:45:08;;;;;;;4.50;1.00;;;11.00;99.90;;;;;;5031952;28;20045;-69
2023/04/24 12:47:34;;;;;;;4.28;1.10;;;10.90;99.90;;;;;;5026119;28;20395;-69
2023/04/24 12:50:00;;;;;;;1.80;0.80;;;;;;;;;;5022652;28;20033;-69
2023/04/24 12:52:27;;;;;;;4.20;0.70;;;;;;;;;;5004921;28;20046;-69
2023/04/24 12:54:54;;;;;;;4.47;0.90;;;10.90;99.90;;;;;;5020925;28;20399;-69
2023/04/24 12:57:21;;;;;;;3.30;0.80;;;11.00;99.90;;;;;;5023596;28;20055;-69
2023/04/24 12:59:47;;;;;;;6.22;0.90;;;;;;;;;;5022603;28;20053;-69
2023/04/24 13:02:13;;;;;;;3.70;0.80;;;;;;;;;;5029391;28;20044;-69
2023/04/24 13:04:39;;;;;;;5.15;0.90;;;;;;;;;;5028474;28;20046;-69
2023/04/24 13:07:06;;;;;;;5.50;0.70;;;11.40;99.90;;;;;;5012234;28;20227;-69
2023/04/24 13:09:31;;;;;;;2.13;0.75;;;11.60;99.90;;;;;;5014057;28;20049;-69
2023/04/24 13:11:57;;;;;;;2.08;0.52;;;;;;;;;;5012753;28;20033;-69
2023/04/24 13:14:24;;;;;;;5.22;1.77;;;;;;;;;;5020010;28;20057;-69
2023/04/24 13:16:50;;;;;;;2.33;0.65;;;;;;;;;;5000539;28;20041;-69
2023/04/24 13:19:16;;;;;;;5.22;1.23;;;;;;;;;;5014288;28;20130;-69
2023/04/24 13:21:41;;;;;;;4.35;2.03;;;10.90;99.90;;;;;;5019058;28;20041;-69
2023/04/24 13:24:08;;;;;;;5.95;1.17;;;;;;;;;;5019226;28;20464;-69
2023/04/24 13:26:34;;;;;;;4.50;1.20;;;10.70;99.90;;;;;;5011566;28;20046;-69
2023/04/24 13:29:00;;;;;;;4.20;1.75;;;;;;;;;;5012930;28;20080;-69
2023/04/24 13:31:26;;;;;;;4.15;1.05;;;;;;;;;;5028543;28;20072;-69
2023/04/24 13:33:52;;;;;;;7.95;1.40;;;;;;;;;;5025080;28;20519;-69
2023/04/24 13:36:17;;;;;;;7.07;2.25;;;10.70;99.90;;;;;;5020608;28;20065;-69
2023/04/24 13:38:44;;;;;;;10.05;3.88;;;10.50;99.90;;;;;;5015814;28;20034;-69
2023/04/24 13:41:10;;;;;;;8.98;2.97;;;10.50;99.90;;;;;;4994738;28;20041;-69
2023/04/24 13:43:36;;;;;;;14.20;3.33;;;;;;;;;;5012237;28;20064;-69
2023/04/24 13:46:02;;;;;;;10.65;2.15;;;;;;;;;;4995064;28;20412;-71
2023/04/24 13:48:29;;;;;;;12.93;2.50;;;11.00;99.90;;;;;;5011016;28;20041;-69
2023/04/24 13:50:55;;;;;;;5.70;2.63;;;;;;;;;;5011058;28;20503;-69
2023/04/24 13:53:21;;;;;;;10.15;2.20;;;;;;;;;;4994881;28;20034;-69
2023/04/24 13:55:47;;;;;;;13.68;3.40;;;;;;;;;;5011362;28;20402;-69
2023/04/24 13:58:14;;;;;;;11.20;2.30;;;10.30;99.90;;;;;;5010703;28;20052;-69
2023/04/24 14:00:40;;;;;;;7.68;2.40;;;10.30;99.90;;;;;;5014657;28;20045;-69
2023/04/24 14:03:06;;;;;;;10.75;2.10;;;10.30;99.90;;;;;;5018589;28;20423;-70
2023/04/24 14:05:31;;;;;;;7.28;2.33;;;10.20;99.90;;;;;;5010609;28;20034;-68